CYPL

Pickle Lake Airport

Pickle Lake, Ontario, Canada
METAR CYPL 190200Z 16005KT 12SM -SN OVC011 M10/M11 A2960 RMK SC8 LAST STFD OBS/NEXT 191100Z SLP061
Observed Flight Rules
Jan-19 @ 02:00 UTC (2 hours ago) Marginal Visual Flight Rules
Wind Visibility Clouds Conditions
160° at 5 knots 12 miles
  • Overcast at 1,100' AGL
  • Light Snow
Temperatures Readings
Current -10°C / 14°F
Dewpoint -11°C / 12°F
Humidity 92%
Altimeter 29.6" Hg
Pressure 1006.1 hPa
Elevation 373
METAR CYPL 190200Z 16005KT 12SM -SN OVC011 M10/M11 A2960 RMK SC8 LAST STFD OBS/NEXT 191100Z SLP061
Observed Flight Rules
Jan-19 @ 02:00 UTC
(2 hours ago)
MVFR
Wind Visibility
160° at 5 knots 12 miles
Clouds
  • Overcast at 1,100' AGL
Conditions
  • Light Snow
Temperature Dewpoint
-10°C / 14°F -11°C / 12°F
Humidity Altimeter Pressure
92% 29.6" Hg 1006.1 hPa